VOI559 MMMX-MMUN
Flight info
| Callsign | VOI559 |
|---|---|
| Flight time | N/A |
| Altitude | 39000 |
| Route | MMMX/05L 1937N09823W GOTAS UT65 PAULE PAUL3H/12L |
| Aircraft | A20N/M-SDE2E3FGHIRWXY/LB1 |
Departure
| Time | N/A |
|---|---|
| Airport | Mexico City Benito Juárez International Airport (MMMX) |
Arrival
| Time | 2026-05-03 21:09 |
|---|---|
| Airport | Cancún International Airport (MMUN) |
| Time | Latitude | Longitude | Altitude | Speed | Heading |
|---|---|---|---|---|---|
| 2026-05-03 20:15 | 19.23792 | -91.73156 | 38989 ft | 506 kts | 89° |
| 2026-05-03 20:15 | 19.23934 | -91.65704 | 38986 ft | 507 kts | 90° |
| 2026-05-03 20:16 | 19.24072 | -91.58286 | 38985 ft | 507 kts | 90° |
| 2026-05-03 20:16 | 19.24207 | -91.50820 | 38983 ft | 508 kts | 90° |
| 2026-05-03 20:17 | 19.24340 | -91.43339 | 38980 ft | 508 kts | 90° |
| 2026-05-03 20:17 | 19.24470 | -91.35853 | 38984 ft | 509 kts | 90° |
| 2026-05-03 20:18 | 19.24597 | -91.28368 | 38978 ft | 509 kts | 90° |
| 2026-05-03 20:18 | 19.24721 | -91.20864 | 38979 ft | 509 kts | 90° |
| 2026-05-03 20:19 | 19.24842 | -91.13377 | 38980 ft | 509 kts | 90° |
| 2026-05-03 20:19 | 19.24960 | -91.05895 | 38973 ft | 508 kts | 90° |
| 2026-05-03 20:20 | 19.25075 | -90.98418 | 38973 ft | 508 kts | 90° |
| 2026-05-03 20:20 | 19.25187 | -90.90938 | 38974 ft | 508 kts | 90° |
| 2026-05-03 20:21 | 19.25296 | -90.83469 | 38973 ft | 508 kts | 90° |
| 2026-05-03 20:21 | 19.25402 | -90.75991 | 38969 ft | 508 kts | 90° |
| 2026-05-03 20:22 | 19.25505 | -90.68512 | 38964 ft | 508 kts | 90° |
| 2026-05-03 20:22 | 19.25606 | -90.61038 | 38965 ft | 508 kts | 90° |
| 2026-05-03 20:23 | 19.25702 | -90.53596 | 38960 ft | 508 kts | 90° |
| 2026-05-03 20:23 | 19.25795 | -90.46110 | 38958 ft | 508 kts | 90° |
| 2026-05-03 20:24 | 19.25886 | -90.38623 | 38956 ft | 509 kts | 90° |
| 2026-05-03 20:24 | 19.25957 | -90.31138 | 38952 ft | 509 kts | 92° |
| 2026-05-03 20:25 | 19.25786 | -90.23638 | 38954 ft | 510 kts | 93° |
| 2026-05-03 20:25 | 19.25588 | -90.16125 | 38951 ft | 510 kts | 93° |
| 2026-05-03 20:26 | 19.25416 | -90.08610 | 38953 ft | 511 kts | 92° |
| 2026-05-03 20:26 | 19.25277 | -90.02362 | 38951 ft | 512 kts | 92° |
| 2026-05-03 20:27 | 19.25081 | -89.93604 | 38964 ft | 512 kts | 93° |
| 2026-05-03 20:27 | 19.24936 | -89.87283 | 38964 ft | 513 kts | 93° |
| 2026-05-03 20:28 | 19.24760 | -89.79731 | 38963 ft | 513 kts | 93° |
| 2026-05-03 20:28 | 19.24581 | -89.72176 | 38967 ft | 514 kts | 93° |
| 2026-05-03 20:29 | 19.24400 | -89.64659 | 38965 ft | 514 kts | 93° |
| 2026-05-03 20:29 | 19.24246 | -89.57088 | 38962 ft | 516 kts | 90° |
| 2026-05-03 20:30 | 19.25056 | -89.49537 | 38963 ft | 517 kts | 78° |
| 2026-05-03 20:30 | 19.26991 | -89.42210 | 38958 ft | 517 kts | 73° |
| 2026-05-03 20:31 | 19.29016 | -89.34906 | 38959 ft | 517 kts | 73° |
| 2026-05-03 20:31 | 19.31036 | -89.27591 | 38957 ft | 518 kts | 73° |
| 2026-05-03 20:32 | 19.33059 | -89.20264 | 38954 ft | 518 kts | 73° |
| 2026-05-03 20:32 | 19.35074 | -89.12956 | 38708 ft | 515 kts | 73° |
| 2026-05-03 20:32 | 19.36063 | -89.09363 | 38126 ft | 514 kts | 73° |
| 2026-05-03 20:33 | 19.37061 | -89.05734 | 37398 ft | 512 kts | 73° |
| 2026-05-03 20:33 | 19.38055 | -89.02119 | 36708 ft | 510 kts | 73° |
| 2026-05-03 20:33 | 19.39043 | -88.98519 | 36009 ft | 508 kts | 73° |
| 2026-05-03 20:33 | 19.40028 | -88.94930 | 35284 ft | 507 kts | 73° |
| 2026-05-03 20:34 | 19.41012 | -88.91347 | 34560 ft | 506 kts | 73° |
| 2026-05-03 20:34 | 19.41991 | -88.87775 | 33823 ft | 505 kts | 73° |
| 2026-05-03 20:34 | 19.42973 | -88.84195 | 32946 ft | 506 kts | 73° |
| 2026-05-03 20:34 | 19.43956 | -88.80605 | 32023 ft | 508 kts | 73° |
| 2026-05-03 20:35 | 19.44944 | -88.76997 | 31085 ft | 510 kts | 73° |
| 2026-05-03 20:35 | 19.45932 | -88.73382 | 30184 ft | 512 kts | 74° |
| 2026-05-03 20:35 | 19.46923 | -88.69752 | 29168 ft | 513 kts | 74° |
| 2026-05-03 20:35 | 19.47908 | -88.66137 | 28471 ft | 507 kts | 74° |
| 2026-05-03 20:36 | 19.48881 | -88.62564 | 27833 ft | 501 kts | 74° |
| 2026-05-03 20:36 | 19.49838 | -88.59046 | 27186 ft | 495 kts | 74° |
| 2026-05-03 20:36 | 19.50787 | -88.55557 | 26561 ft | 490 kts | 73° |
| 2026-05-03 20:36 | 19.51725 | -88.52105 | 25943 ft | 484 kts | 73° |
| 2026-05-03 20:37 | 19.52654 | -88.48685 | 25339 ft | 479 kts | 73° |
| 2026-05-03 20:37 | 19.53569 | -88.45315 | 24743 ft | 474 kts | 73° |
| 2026-05-03 20:37 | 19.54464 | -88.42013 | 24235 ft | 467 kts | 73° |
| 2026-05-03 20:37 | 19.55349 | -88.38749 | 24028 ft | 453 kts | 73° |
| 2026-05-03 20:38 | 19.56201 | -88.35600 | 23957 ft | 436 kts | 73° |
| 2026-05-03 20:38 | 19.57034 | -88.32520 | 23951 ft | 438 kts | 73° |
| 2026-05-03 20:38 | 19.57879 | -88.29397 | 23950 ft | 442 kts | 73° |
| 2026-05-03 20:38 | 19.58726 | -88.26265 | 23951 ft | 441 kts | 73° |
| 2026-05-03 20:39 | 19.59568 | -88.23145 | 23953 ft | 441 kts | 73° |
| 2026-05-03 20:39 | 19.60412 | -88.20017 | 23951 ft | 441 kts | 73° |
| 2026-05-03 20:39 | 19.61256 | -88.16888 | 23953 ft | 441 kts | 73° |
| 2026-05-03 20:39 | 19.62096 | -88.13769 | 23950 ft | 441 kts | 73° |
| 2026-05-03 20:40 | 19.62940 | -88.10637 | 23953 ft | 441 kts | 73° |
| 2026-05-03 20:40 | 19.63782 | -88.07505 | 23952 ft | 441 kts | 73° |
| 2026-05-03 20:40 | 19.64622 | -88.04379 | 23957 ft | 441 kts | 73° |
| 2026-05-03 20:40 | 19.65461 | -88.01254 | 23955 ft | 441 kts | 73° |
| 2026-05-03 20:41 | 19.66303 | -87.98118 | 23953 ft | 441 kts | 73° |
| 2026-05-03 20:41 | 19.67143 | -87.94987 | 23953 ft | 441 kts | 73° |
| 2026-05-03 20:41 | 19.67980 | -87.91859 | 23953 ft | 441 kts | 73° |
| 2026-05-03 20:41 | 19.68820 | -87.88723 | 23951 ft | 441 kts | 73° |
| 2026-05-03 20:42 | 19.69648 | -87.85628 | 23955 ft | 442 kts | 73° |
| 2026-05-03 20:42 | 19.70485 | -87.82499 | 23951 ft | 441 kts | 73° |
| 2026-05-03 20:42 | 19.71321 | -87.79366 | 23955 ft | 441 kts | 73° |
| 2026-05-03 20:42 | 19.72157 | -87.76235 | 23950 ft | 441 kts | 73° |
| 2026-05-03 20:43 | 19.72994 | -87.73098 | 23956 ft | 442 kts | 73° |
| 2026-05-03 20:43 | 19.73830 | -87.69964 | 23921 ft | 442 kts | 73° |
| 2026-05-03 20:43 | 19.74666 | -87.66823 | 23722 ft | 441 kts | 73° |
| 2026-05-03 20:43 | 19.75498 | -87.63699 | 23501 ft | 438 kts | 73° |
| 2026-05-03 20:44 | 19.76321 | -87.60603 | 23237 ft | 435 kts | 73° |
| 2026-05-03 20:44 | 19.77141 | -87.57515 | 22968 ft | 434 kts | 73° |
| 2026-05-03 20:44 | 19.77958 | -87.54440 | 22732 ft | 432 kts | 73° |
| 2026-05-03 20:44 | 19.78771 | -87.51376 | 22478 ft | 430 kts | 73° |
| 2026-05-03 20:45 | 19.79581 | -87.48322 | 22219 ft | 428 kts | 73° |
| 2026-05-03 20:45 | 19.80386 | -87.45284 | 21968 ft | 426 kts | 73° |
| 2026-05-03 20:45 | 19.81337 | -87.42314 | 21722 ft | 424 kts | 66° |
| 2026-05-03 20:45 | 19.82648 | -87.39527 | 21475 ft | 421 kts | 58° |
| 2026-05-03 20:46 | 19.84279 | -87.36958 | 21226 ft | 418 kts | 52° |
| 2026-05-03 20:46 | 19.86011 | -87.34477 | 20993 ft | 417 kts | 52° |
| 2026-05-03 20:46 | 19.87724 | -87.32002 | 20760 ft | 415 kts | 52° |
| 2026-05-03 20:46 | 19.89429 | -87.29531 | 20521 ft | 414 kts | 52° |
| 2026-05-03 20:47 | 19.91128 | -87.27068 | 20283 ft | 412 kts | 52° |
| 2026-05-03 20:47 | 19.92816 | -87.24619 | 20057 ft | 410 kts | 52° |
| 2026-05-03 20:47 | 19.94495 | -87.22185 | 19968 ft | 409 kts | 52° |
| 2026-05-03 20:47 | 19.96213 | -87.19778 | 19936 ft | 409 kts | 46° |
| 2026-05-03 20:48 | 19.98340 | -87.17809 | 19679 ft | 405 kts | 31° |
| 2026-05-03 20:48 | 20.00873 | -87.16510 | 19087 ft | 405 kts | 15° |
| 2026-05-03 20:48 | 20.03641 | -87.15965 | 18241 ft | 408 kts | 2° |
| 2026-05-03 20:48 | 20.06487 | -87.15880 | 17388 ft | 408 kts | 359° |
| 2026-05-03 20:49 | 20.09309 | -87.15874 | 16554 ft | 403 kts | 359° |
| 2026-05-03 20:49 | 20.12095 | -87.15852 | 15744 ft | 398 kts | 359° |
| 2026-05-03 20:49 | 20.14854 | -87.15796 | 14958 ft | 394 kts | 0° |
| 2026-05-03 20:49 | 20.17537 | -87.15719 | 14219 ft | 389 kts | 0° |
| 2026-05-03 20:50 | 20.20209 | -87.15628 | 13636 ft | 380 kts | 1° |
| 2026-05-03 20:50 | 20.22817 | -87.15534 | 13126 ft | 368 kts | 1° |
| 2026-05-03 20:50 | 20.25344 | -87.15441 | 12625 ft | 358 kts | 1° |
| 2026-05-03 20:50 | 20.27800 | -87.15352 | 12138 ft | 349 kts | 1° |
| 2026-05-03 20:51 | 20.30192 | -87.15265 | 11661 ft | 340 kts | 1° |
| 2026-05-03 20:51 | 20.32519 | -87.15182 | 11198 ft | 332 kts | 1° |
| 2026-05-03 20:51 | 20.34807 | -87.15100 | 10741 ft | 324 kts | 1° |
| 2026-05-03 20:51 | 20.37034 | -87.15021 | 10357 ft | 314 kts | 1° |
| 2026-05-03 20:52 | 20.39170 | -87.14943 | 10135 ft | 300 kts | 1° |
| 2026-05-03 20:52 | 20.41222 | -87.14868 | 9787 ft | 291 kts | 0° |
| 2026-05-03 20:52 | 20.43223 | -87.14797 | 9592 ft | 286 kts | 0° |
| 2026-05-03 20:52 | 20.45235 | -87.14728 | 9450 ft | 292 kts | 1° |
| 2026-05-03 20:53 | 20.47267 | -87.14655 | 9326 ft | 290 kts | 1° |
| 2026-05-03 20:53 | 20.49257 | -87.14582 | 9093 ft | 288 kts | 1° |
| 2026-05-03 20:53 | 20.51252 | -87.14509 | 8734 ft | 284 kts | 1° |
| 2026-05-03 20:53 | 20.53198 | -87.14438 | 8384 ft | 276 kts | 1° |
| 2026-05-03 20:54 | 20.55108 | -87.14368 | 8037 ft | 272 kts | 1° |
| 2026-05-03 20:54 | 20.58849 | -87.14235 | 7349 ft | 270 kts | 1° |
| 2026-05-03 20:54 | 20.60725 | -87.14169 | 6999 ft | 270 kts | 1° |
| 2026-05-03 20:55 | 20.62622 | -87.14101 | 6639 ft | 275 kts | 1° |
| 2026-05-03 20:55 | 20.64541 | -87.14032 | 6351 ft | 278 kts | 1° |
| 2026-05-03 20:55 | 20.66462 | -87.13963 | 6102 ft | 273 kts | 1° |
| 2026-05-03 20:55 | 20.68339 | -87.13894 | 5854 ft | 267 kts | 1° |
| 2026-05-03 20:56 | 20.70175 | -87.13828 | 5611 ft | 263 kts | 1° |
| 2026-05-03 20:56 | 20.72013 | -87.13762 | 5366 ft | 264 kts | 1° |
| 2026-05-03 20:56 | 20.73841 | -87.13696 | 5128 ft | 261 kts | 1° |
| 2026-05-03 20:57 | 20.75125 | -87.13650 | 4959 ft | 261 kts | 1° |
| 2026-05-03 20:57 | 20.76942 | -87.13584 | 4718 ft | 261 kts | 1° |
| 2026-05-03 20:57 | 20.78745 | -87.13519 | 4465 ft | 259 kts | 1° |
| 2026-05-03 20:57 | 20.80334 | -87.13462 | 4255 ft | 255 kts | 1° |
| 2026-05-03 20:58 | 20.82094 | -87.13401 | 4015 ft | 250 kts | 1° |
| 2026-05-03 20:58 | 20.83822 | -87.13344 | 3770 ft | 247 kts | 1° |
| 2026-05-03 20:58 | 20.85542 | -87.13286 | 3527 ft | 248 kts | 1° |
| 2026-05-03 20:58 | 20.87262 | -87.13226 | 3297 ft | 246 kts | 1° |
| 2026-05-03 20:59 | 20.88975 | -87.13164 | 3059 ft | 247 kts | 2° |
| 2026-05-03 20:59 | 20.90680 | -87.13101 | 2968 ft | 245 kts | 2° |
| 2026-05-03 20:59 | 20.92392 | -87.13037 | 2967 ft | 246 kts | 2° |
| 2026-05-03 20:59 | 20.94103 | -87.12974 | 2966 ft | 243 kts | 2° |
| 2026-05-03 21:00 | 20.95756 | -87.12912 | 2966 ft | 234 kts | 2° |
| 2026-05-03 21:00 | 20.96284 | -87.12893 | 2969 ft | 235 kts | 2° |
| 2026-05-03 21:00 | 20.99015 | -87.12792 | 2963 ft | 227 kts | 2° |
| 2026-05-03 21:00 | 21.00543 | -87.12735 | 2968 ft | 212 kts | 2° |
| 2026-05-03 21:01 | 21.02039 | -87.12680 | 2972 ft | 217 kts | 2° |
| 2026-05-03 21:01 | 21.03522 | -87.12625 | 2970 ft | 215 kts | 2° |
| 2026-05-03 21:01 | 21.05023 | -87.12570 | 2979 ft | 216 kts | 2° |
| 2026-05-03 21:01 | 21.06519 | -87.12516 | 2971 ft | 214 kts | 2° |
| 2026-05-03 21:02 | 21.07971 | -87.12245 | 2971 ft | 213 kts | 27° |
| 2026-05-03 21:02 | 21.09258 | -87.11451 | 2971 ft | 211 kts | 32° |
| 2026-05-03 21:02 | 21.10468 | -87.10658 | 2973 ft | 201 kts | 32° |
| 2026-05-03 21:02 | 21.11675 | -87.09862 | 2969 ft | 204 kts | 32° |
| 2026-05-03 21:03 | 21.12881 | -87.09073 | 2968 ft | 203 kts | 32° |
| 2026-05-03 21:03 | 21.14090 | -87.08287 | 2967 ft | 203 kts | 32° |
| 2026-05-03 21:03 | 21.15286 | -87.07474 | 2964 ft | 203 kts | 42° |
| 2026-05-03 21:03 | 21.16025 | -87.06223 | 2970 ft | 202 kts | 79° |
| 2026-05-03 21:04 | 21.15921 | -87.04750 | 2970 ft | 201 kts | 116° |
| 2026-05-03 21:04 | 21.15173 | -87.03488 | 2966 ft | 201 kts | 126° |
| 2026-05-03 21:04 | 21.14361 | -87.02276 | 2970 ft | 200 kts | 127° |
| 2026-05-03 21:04 | 21.13549 | -87.01074 | 2886 ft | 195 kts | 126° |
| 2026-05-03 21:05 | 21.12788 | -86.99885 | 2594 ft | 192 kts | 124° |
| 2026-05-03 21:05 | 21.12052 | -86.98706 | 2316 ft | 189 kts | 124° |
| 2026-05-03 21:05 | 21.11338 | -86.97560 | 2067 ft | 179 kts | 123° |
| 2026-05-03 21:05 | 21.10671 | -86.96489 | 1845 ft | 167 kts | 123° |
| 2026-05-03 21:06 | 21.10045 | -86.95486 | 1627 ft | 157 kts | 123° |
| 2026-05-03 21:06 | 21.09464 | -86.94552 | 1438 ft | 144 kts | 123° |
| 2026-05-03 21:06 | 21.08925 | -86.93686 | 1254 ft | 139 kts | 123° |
| 2026-05-03 21:06 | 21.08383 | -86.92817 | 1074 ft | 139 kts | 123° |
| 2026-05-03 21:07 | 21.07859 | -86.91977 | 906 ft | 136 kts | 123° |
| 2026-05-03 21:07 | 21.07347 | -86.91154 | 733 ft | 129 kts | 123° |
| 2026-05-03 21:07 | 21.06858 | -86.90362 | 567 ft | 127 kts | 123° |
| 2026-05-03 21:07 | 21.06354 | -86.89570 | 403 ft | 130 kts | 123° |
| 2026-05-03 21:08 | 21.05863 | -86.88770 | 225 ft | 127 kts | 125° |
| 2026-05-03 21:08 | 21.05376 | -86.87985 | 56 ft | 128 kts | 125° |
| 2026-05-03 21:08 | 21.04906 | -86.87244 | 39 ft | 109 kts | 123° |
| 2026-05-03 21:08 | 21.04604 | -86.86748 | 38 ft | 51 kts | 123° |
| 2026-05-03 21:09 | 21.04463 | -86.86527 | 38 ft | 31 kts | 129° |
| 2026-05-03 21:09 | 21.04306 | -86.86396 | 38 ft | 27 kts | 153° |
| 2026-05-03 21:09 | 21.04196 | -86.86338 | 38 ft | 11 kts | 153° |
| 2026-05-03 21:09 | 21.04124 | -86.86299 | 38 ft | 13 kts | 148° |
| 2026-05-03 21:10 | 21.04067 | -86.86228 | 38 ft | 12 kts | 142° |
| 2026-05-03 21:10 | 21.03994 | -86.86249 | 41 ft | 11 kts | 213° |
| 2026-05-03 21:10 | 21.03937 | -86.86289 | 46 ft | 10 kts | 213° |
| 2026-05-03 21:10 | 21.03875 | -86.86333 | 50 ft | 12 kts | 213° |
| 2026-05-03 21:11 | 21.03797 | -86.86389 | 50 ft | 15 kts | 214° |
| 2026-05-03 21:11 | 21.03699 | -86.86460 | 50 ft | 18 kts | 213° |
| 2026-05-03 21:11 | 21.03581 | -86.86544 | 41 ft | 23 kts | 213° |
| 2026-05-03 21:11 | 21.03445 | -86.86642 | 38 ft | 23 kts | 214° |
| 2026-05-03 21:12 | 21.03363 | -86.86700 | 38 ft | 9 kts | 213° |
| 2026-05-03 21:12 | 21.03345 | -86.86750 | 38 ft | 8 kts | 292° |
| 2026-05-03 21:12 | 21.03377 | -86.86804 | 38 ft | 9 kts | 305° |
| 2026-05-03 21:12 | 21.03424 | -86.86879 | 38 ft | 14 kts | 304° |
| 2026-05-03 21:13 | 21.03490 | -86.86984 | 38 ft | 19 kts | 304° |
| 2026-05-03 21:13 | 21.03569 | -86.87110 | 38 ft | 21 kts | 304° |
| 2026-05-03 21:13 | 21.03642 | -86.87225 | 38 ft | 16 kts | 304° |
| 2026-05-03 21:13 | 21.03704 | -86.87325 | 38 ft | 17 kts | 303° |
| 2026-05-03 21:14 | 21.03770 | -86.87430 | 38 ft | 17 kts | 304° |
| 2026-05-03 21:14 | 21.03827 | -86.87522 | 38 ft | 10 kts | 300° |
| 2026-05-03 21:14 | 21.03831 | -86.87570 | 38 ft | 4 kts | 275° |
| 2026-05-03 21:14 | 21.03846 | -86.87581 | 36 ft | 4 kts | 346° |
| 2026-05-03 21:15 | 21.03897 | -86.87583 | 38 ft | 7 kts | 358° |
| 2026-05-03 21:15 | 21.03911 | -86.87584 | 35 ft | 0 kts | 358° |